Time;durP1;ratioP1;P1;durP2;ratioP2;P2;SDS_P1;SDS_P2;PMS_P1;PMS_P2;Temp;Humidity;BMP_temperature;BMP_pressure;BME280_temperature;BME280_humidity;BME280_pressure;Samples;Min_cycle;Max_cycle;Signal;HPM_P1;HPM_P2
2022/10/17 00:01:11;;;;;;;25.33;10.15;;;;;;;;;;5004771;28;20163;-72
2022/10/17 00:03:38;;;;;;;17.10;9.93;;;;;;;;;;5003349;28;20080;-67
2022/10/17 00:06:06;;;;;;;17.67;9.77;;;;;;;;;;4996727;28;20055;-68
2022/10/17 00:08:32;;;;;;;17.70;9.55;;;;;;;;;;4996587;28;20050;-68
2022/10/17 00:11:01;;;;;;;21.48;10.32;;;;;;;;;;4998647;28;20038;-70
2022/10/17 00:13:27;;;;;;;14.40;9.00;;;;;;;;;;5005767;28;20041;-67
2022/10/17 00:15:53;;;;;;;14.75;9.60;;;;;;;;;;5001688;28;20042;-71
2022/10/17 00:18:19;;;;;;;15.13;9.93;;;;;;;;;;5005423;28;20046;-67
2022/10/17 00:20:45;;;;;;;20.48;9.75;;;;;;;;;;5004629;28;20404;-67
2022/10/17 00:23:11;;;;;;;22.35;9.68;;;;;;;;;;5000468;28;20049;-66
2022/10/17 00:25:38;;;;;;;17.48;9.60;;;;;;;;;;5004938;28;20042;-68
2022/10/17 00:28:03;;;;;;;15.77;9.38;;;;;;;;;;5000660;28;20458;-69
2022/10/17 00:30:31;;;;;;;16.33;10.10;;;;;;;;;;5004383;28;20045;-68
2022/10/17 00:32:57;;;;;;;15.23;8.85;;;;;;;;;;5004332;28;20121;-67
2022/10/17 00:35:24;;;;;;;17.77;9.55;;;;;;;;;;5006229;28;20683;-68
2022/10/17 00:37:50;;;;;;;18.23;9.00;;;;;;;;;;5003814;28;20127;-69
2022/10/17 00:40:16;;;;;;;15.43;8.73;;;;;;;;;;5007155;28;20041;-68
2022/10/17 00:42:41;;;;;;;18.33;8.60;;;;;;;;;;4991947;28;20129;-66
2022/10/17 00:45:18;;;;;;;20.75;9.63;;;;;;;;;;4997197;28;20132;-71
2022/10/17 00:47:49;;;;;;;16.17;9.27;;;;;;;;;;5008252;28;20100;-67
2022/10/17 00:50:15;;;;;;;17.27;10.23;;;;;;;;;;5011675;28;20060;-67
2022/10/17 00:52:42;;;;;;;19.13;10.93;;;;;;;;;;5004127;28;20040;-68
2022/10/17 00:55:17;;;;;;;23.85;11.55;;;;;;;;;;4995420;28;20116;-67
2022/10/17 00:57:44;;;;;;;19.38;11.43;;;;;;;;;;4997544;28;20049;-66
2022/10/17 01:00:12;;;;;;;19.25;10.70;;;;;;;;;;5001562;28;20054;-67
2022/10/17 01:02:38;;;;;;;18.00;11.18;;;;;;;;;;5001010;28;20050;-67
2022/10/17 01:05:05;;;;;;;19.25;11.25;;;;;;;;;;5004000;28;20042;-68
2022/10/17 01:07:31;;;;;;;21.25;11.20;;;;;;;;;;5006024;28;20068;-67
2022/10/17 01:09:58;;;;;;;20.17;11.68;;;;;;;;;;5008784;28;20049;-68
2022/10/17 01:12:42;;;;;;;16.40;10.70;;;;;;;;;;4998747;28;20070;-67
2022/10/17 01:15:17;;;;;;;;;;;;;;;;;;5010168;28;20042;-67
2022/10/17 01:17:58;;;;;;;20.90;11.40;;;;;;;;;;5009554;28;20303;-66
2022/10/17 01:20:57;;;;;;;14.32;10.77;;;;;;;;;;5009769;28;20050;-67
2022/10/17 01:23:41;;;;;;;20.50;11.73;;;;;;;;;;5003223;28;20511;-67
2022/10/17 01:26:26;;;;;;;17.15;11.30;;;;;;;;;;5009462;28;20064;-67
2022/10/17 01:29:10;;;;;;;24.40;11.50;;;;;;;;;;5010795;28;20062;-69
2022/10/17 01:31:43;;;;;;;;;;;;;;;;;;5002934;28;20050;-67
2022/10/17 01:34:12;;;;;;;26.33;10.82;;;;;;;;;;5000288;28;19922;-68
2022/10/17 01:36:57;;;;;;;20.25;11.45;;;;;;;;;;5006135;28;20057;-68
2022/10/17 01:39:31;;;;;;;16.10;10.60;;;;;;;;;;5010671;28;20506;-70
2022/10/17 01:42:06;;;;;;;18.23;11.05;;;;;;;;;;5007347;28;20100;-68
2022/10/17 01:44:48;;;;;;;19.13;10.73;;;;;;;;;;5004383;28;20130;-67
2022/10/17 01:47:18;;;;;;;20.77;11.10;;;;;;;;;;5010305;28;20042;-68
2022/10/17 01:49:47;;;;;;;21.13;11.35;;;;;;;;;;5008411;28;20480;-69
2022/10/17 01:52:41;;;;;;;16.70;9.85;;;;;;;;;;5005532;28;20038;-68
2022/10/17 01:55:15;;;;;;;15.70;10.57;;;;;;;;;;5009981;28;20077;-68
2022/10/17 01:57:46;;;;;;;18.38;9.85;;;;;;;;;;5008498;28;20053;-67
2022/10/17 02:00:21;;;;;;;19.25;10.68;;;;;;;;;;5010078;28;20042;-69
2022/10/17 02:02:48;;;;;;;;;;;;;;;;;;5005739;28;20050;-67
2022/10/17 02:05:17;;;;;;;25.30;10.45;;;;;;;;;;5006932;28;19956;-67
2022/10/17 02:07:43;;;;;;;17.77;9.85;;;;;;;;;;5007239;28;20451;-68
2022/10/17 02:10:17;;;;;;;19.90;10.15;;;;;;;;;;5008633;28;20046;-68
2022/10/17 02:12:46;;;;;;;;;;;;;;;;;;5008590;28;20042;-67
2022/10/17 02:15:44;;;;;;;15.45;9.50;;;;;;;;;;5008624;28;20237;-69
2022/10/17 02:18:10;;;;;;;14.85;8.95;;;;;;;;;;5004884;28;20050;-66
2022/10/17 02:20:55;;;;;;;15.80;8.68;;;;;;;;;;5011257;28;20452;-67
2022/10/17 02:23:53;;;;;;;18.80;9.07;;;;;;;;;;5007920;28;20053;-68
2022/10/17 02:26:31;;;;;;;19.55;8.15;;;;;;;;;;4971448;28;20047;-67
2022/10/17 02:29:16;;;;;;;17.40;8.20;;;;;;;;;;4969521;28;20580;-67
2022/10/17 02:31:54;;;;;;;15.20;7.85;;;;;;;;;;4967093;28;20068;-68
2022/10/17 02:34:32;;;;;;;13.48;7.53;;;;;;;;;;4970619;28;20072;-68
2022/10/17 02:37:00;;;;;;;13.55;8.35;;;;;;;;;;4980058;28;20112;-68
2022/10/17 02:39:28;;;;;;;18.23;7.88;;;;;;;;;;4968226;28;20528;-69
2022/10/17 02:41:56;;;;;;;15.23;8.25;;;;;;;;;;4973381;28;20048;-69
2022/10/17 02:44:24;;;;;;;18.35;8.15;;;;;;;;;;4977298;28;20353;-67
2022/10/17 02:46:59;;;;;;;15.63;8.23;;;;;;;;;;4979894;28;20059;-67
2022/10/17 02:49:30;;;;;;;12.60;7.97;;;;;;;;;;4967702;28;20085;-68
2022/10/17 02:52:06;;;;;;;16.38;8.38;;;;;;;;;;4977478;28;20038;-68
2022/10/17 02:54:40;;;;;;;18.95;7.68;;;;;;;;;;4968554;28;20047;-69
2022/10/17 02:57:08;;;;;;;23.65;8.13;;;;;;;;;;4966667;28;20062;-68
2022/10/17 02:59:35;;;;;;;16.80;8.32;;;;;;;;;;4972099;28;20129;-68
2022/10/17 03:02:04;;;;;;;14.30;8.02;;;;;;;;;;4970161;28;20113;-67
2022/10/17 03:04:30;;;;;;;19.25;8.45;;;;;;;;;;5006116;28;20221;-67
2022/10/17 03:06:55;;;;;;;15.50;8.63;;;;;;;;;;5006821;28;20038;-67
2022/10/17 03:09:21;;;;;;;17.58;7.95;;;;;;;;;;5006870;28;20046;-68
2022/10/17 03:11:47;;;;;;;14.40;8.38;;;;;;;;;;5008398;28;20053;-66
2022/10/17 03:14:13;;;;;;;12.90;8.15;;;;;;;;;;5001950;28;20034;-67
2022/10/17 03:16:39;;;;;;;13.40;7.78;;;;;;;;;;4999138;28;20064;-67
2022/10/17 03:19:05;;;;;;;13.07;7.80;;;;;;;;;;5002318;28;20084;-68
2022/10/17 03:21:31;;;;;;;17.33;8.60;;;;;;;;;;5007390;28;20472;-73
2022/10/17 03:23:57;;;;;;;13.30;7.80;;;;;;;;;;5006190;28;20056;-68
2022/10/17 03:26:23;;;;;;;20.15;8.05;;;;;;;;;;5006115;28;20046;-67
2022/10/17 03:28:48;;;;;;;12.68;7.72;;;;;;;;;;5005034;28;20132;-67
2022/10/17 03:31:16;;;;;;;17.15;7.95;;;;;;;;;;5006854;28;20034;-68
2022/10/17 03:33:42;;;;;;;16.48;7.90;;;;;;;;;;5009214;28;20132;-68
2022/10/17 03:36:16;;;;;;;17.83;8.15;;;;;;;;;;5007412;28;20152;-67
2022/10/17 03:38:42;;;;;;;11.82;7.65;;;;;;;;;;5000287;28;20058;-68
2022/10/17 03:41:09;;;;;;;21.05;8.02;;;;;;;;;;4995217;28;20041;-67
2022/10/17 03:43:35;;;;;;;16.88;8.18;;;;;;;;;;5000119;28;20112;-67
2022/10/17 03:46:02;;;;;;;23.92;8.85;;;;;;;;;;5002015;28;20060;-68
2022/10/17 03:48:29;;;;;;;16.00;8.30;;;;;;;;;;5006444;28;20483;-69
2022/10/17 03:51:00;;;;;;;17.40;8.93;;;;;;;;;;5007154;28;20511;-68
2022/10/17 03:53:26;;;;;;;21.90;9.43;;;;;;;;;;5002518;28;20045;-70
2022/10/17 03:55:52;;;;;;;15.32;8.73;;;;;;;;;;5006143;28;20057;-69
2022/10/17 03:58:18;;;;;;;15.05;8.23;;;;;;;;;;4999940;28;20054;-68
2022/10/17 04:00:44;;;;;;;20.23;9.00;;;;;;;;;;5004459;28;20048;-68
2022/10/17 04:03:10;;;;;;;14.07;9.10;;;;;;;;;;5001567;28;20052;-66
2022/10/17 04:05:36;;;;;;;17.00;9.20;;;;;;;;;;4997765;28;20050;-67
2022/10/17 04:08:02;;;;;;;17.58;9.48;;;;;;;;;;5002607;28;20095;-70
2022/10/17 04:10:28;;;;;;;17.77;9.10;;;;;;;;;;5007693;28;20046;-69
2022/10/17 04:12:54;;;;;;;15.30;8.50;;;;;;;;;;5006916;28;20061;-68
2022/10/17 04:15:20;;;;;;;15.20;8.27;;;;;;;;;;5001829;28;20050;-68
2022/10/17 04:17:46;;;;;;;14.93;8.20;;;;;;;;;;5002280;28;20049;-67
2022/10/17 04:20:12;;;;;;;19.02;8.85;;;;;;;;;;5003010;28;20069;-70
2022/10/17 04:22:38;;;;;;;18.38;8.60;;;;;;;;;;5003254;28;20074;-67
2022/10/17 04:25:04;;;;;;;21.30;8.07;;;;;;;;;;5004663;28;20124;-67
2022/10/17 04:27:30;;;;;;;16.00;8.45;;;;;;;;;;5003820;28;20129;-67
2022/10/17 04:29:56;;;;;;;16.13;7.50;;;;;;;;;;5001206;28;20612;-68
2022/10/17 04:32:22;;;;;;;13.48;7.40;;;;;;;;;;5004264;28;20045;-70
2022/10/17 04:34:48;;;;;;;17.92;8.55;;;;;;;;;;5008510;28;20117;-71
2022/10/17 04:37:15;;;;;;;16.15;7.25;;;;;;;;;;5004616;28;20290;-69
2022/10/17 04:39:41;;;;;;;19.23;7.63;;;;;;;;;;5007061;28;20511;-74
2022/10/17 04:42:07;;;;;;;16.77;7.75;;;;;;;;;;5009231;28;20128;-70
2022/10/17 04:44:34;;;;;;;18.20;8.23;;;;;;;;;;5002015;28;20046;-67
2022/10/17 04:47:00;;;;;;;14.73;7.50;;;;;;;;;;4999407;28;20045;-67
2022/10/17 04:49:26;;;;;;;15.10;7.63;;;;;;;;;;5000459;28;20084;-67
2022/10/17 04:51:52;;;;;;;17.42;7.55;;;;;;;;;;5009251;28;20042;-68
2022/10/17 04:54:18;;;;;;;13.50;7.07;;;;;;;;;;5010053;28;20136;-68
2022/10/17 04:56:45;;;;;;;17.60;7.45;;;;;;;;;;5003996;28;21063;-68
2022/10/17 04:59:11;;;;;;;13.95;6.63;;;;;;;;;;5003986;28;20053;-69
2022/10/17 05:01:37;;;;;;;16.60;7.22;;;;;;;;;;5004845;28;20440;-70
2022/10/17 05:04:03;;;;;;;17.25;7.03;;;;;;;;;;5007134;28;20084;-69
2022/10/17 05:06:30;;;;;;;11.75;7.25;;;;;;;;;;5003555;28;20042;-70
2022/10/17 05:08:57;;;;;;;17.23;7.60;;;;;;;;;;5009500;28;20046;-70
2022/10/17 05:11:25;;;;;;;15.70;7.45;;;;;;;;;;5002548;28;20050;-68
2022/10/17 05:13:56;;;;;;;15.60;7.95;;;;;;;;;;5005793;28;20085;-72
2022/10/17 05:16:23;;;;;;;16.08;7.57;;;;;;;;;;5001627;28;20058;-68
2022/10/17 05:18:51;;;;;;;17.08;7.78;;;;;;;;;;5005358;28;20053;-69
2022/10/17 05:21:17;;;;;;;18.40;8.13;;;;;;;;;;5006367;28;20051;-70
2022/10/17 05:23:43;;;;;;;17.85;8.05;;;;;;;;;;5010111;28;20053;-70
2022/10/17 05:26:10;;;;;;;17.35;7.13;;;;;;;;;;5010260;28;20046;-68
2022/10/17 05:28:36;;;;;;;21.20;8.20;;;;;;;;;;5012258;28;20046;-68
2022/10/17 05:31:07;;;;;;;16.25;6.72;;;;;;;;;;5012407;28;20042;-69
2022/10/17 05:33:33;;;;;;;20.85;6.45;;;;;;;;;;5006798;28;20037;-69
2022/10/17 05:36:00;;;;;;;13.05;6.28;;;;;;;;;;5003206;28;20507;-71
2022/10/17 05:38:26;;;;;;;15.55;6.50;;;;;;;;;;5005919;28;20049;-68
2022/10/17 05:40:59;;;;;;;17.58;6.38;;;;;;;;;;5007210;28;20523;-68
2022/10/17 05:43:26;;;;;;;15.07;6.68;;;;;;;;;;5002759;28;20053;-67
2022/10/17 05:45:53;;;;;;;13.45;6.15;;;;;;;;;;4998294;28;20567;-68
2022/10/17 05:48:20;;;;;;;14.32;6.43;;;;;;;;;;5008233;28;20049;-68
2022/10/17 05:50:46;;;;;;;15.15;6.60;;;;;;;;;;5004678;28;20062;-69
2022/10/17 05:53:12;;;;;;;14.40;6.25;;;;;;;;;;5001678;28;20487;-70
2022/10/17 05:55:38;;;;;;;16.23;6.00;;;;;;;;;;5001056;28;20388;-69
2022/10/17 05:58:04;;;;;;;13.25;5.65;;;;;;;;;;5007372;28;20145;-70
2022/10/17 06:00:30;;;;;;;27.35;6.40;;;;;;;;;;5008866;28;20495;-71
2022/10/17 06:02:56;;;;;;;14.98;6.35;;;;;;;;;;5010978;28;20057;-69
2022/10/17 06:05:22;;;;;;;16.13;6.05;;;;;;;;;;5015746;28;20056;-70
2022/10/17 06:07:49;;;;;;;17.42;5.85;;;;;;;;;;5004053;28;20046;-71
2022/10/17 06:10:16;;;;;;;13.27;6.18;;;;;;;;;;5007303;28;20050;-70
2022/10/17 06:12:42;;;;;;;16.35;6.05;;;;;;;;;;5007412;28;20050;-69
2022/10/17 06:15:09;;;;;;;15.35;6.75;;;;;;;;;;5005774;28;20049;-68
2022/10/17 06:17:35;;;;;;;17.65;5.85;;;;;;;;;;4999711;28;20050;-68
2022/10/17 06:20:01;;;;;;;14.57;6.78;;;;;;;;;;5001428;28;20114;-70
2022/10/17 06:22:27;;;;;;;15.05;6.55;;;;;;;;;;5003699;28;20165;-67
2022/10/17 06:24:53;;;;;;;15.77;6.60;;;;;;;;;;4997114;28;20038;-68
2022/10/17 06:27:19;;;;;;;20.35;6.15;;;;;;;;;;5000013;28;20049;-67
2022/10/17 06:29:46;;;;;;;14.23;6.03;;;;;;;;;;5000993;28;20068;-68
2022/10/17 06:32:12;;;;;;;19.95;6.28;;;;;;;;;;4996040;28;20042;-67
2022/10/17 06:34:39;;;;;;;21.98;6.22;;;;;;;;;;4998283;28;20113;-69
2022/10/17 06:37:04;;;;;;;18.77;6.72;;;;;;;;;;5005922;28;20563;-68
2022/10/17 06:39:32;;;;;;;19.50;6.85;;;;;;;;;;5005719;28;20050;-67
2022/10/17 06:42:02;;;;;;;21.73;6.38;;;;;;;;;;5004925;28;20181;-71
2022/10/17 06:44:30;;;;;;;22.38;6.65;;;;;;;;;;5001025;28;20512;-72
2022/10/17 06:46:57;;;;;;;23.20;6.82;;;;;;;;;;5004565;28;20054;-70
2022/10/17 06:49:24;;;;;;;17.77;7.00;;;;;;;;;;5007499;28;20249;-69
2022/10/17 06:51:49;;;;;;;23.95;6.75;;;;;;;;;;5009139;28;20642;-72
2022/10/17 06:54:15;;;;;;;23.38;7.05;;;;;;;;;;5008759;28;20046;-72
2022/10/17 06:56:41;;;;;;;23.75;7.03;;;;;;;;;;4999552;28;20053;-71
2022/10/17 06:59:09;;;;;;;26.70;7.05;;;;;;;;;;5011881;28;20500;-69
2022/10/17 07:01:35;;;;;;;20.23;6.97;;;;;;;;;;5011859;28;20053;-71
2022/10/17 07:04:01;;;;;;;17.48;6.60;;;;;;;;;;5014426;28;20119;-70
2022/10/17 07:06:27;;;;;;;21.73;6.72;;;;;;;;;;5011635;28;20133;-70
2022/10/17 07:08:54;;;;;;;20.88;6.80;;;;;;;;;;5011561;28;20050;-70
2022/10/17 07:11:21;;;;;;;21.83;6.35;;;;;;;;;;5010573;28;20567;-68
2022/10/17 07:13:48;;;;;;;21.13;6.47;;;;;;;;;;5004686;28;20112;-70
2022/10/17 07:16:14;;;;;;;12.85;5.47;;;;;;;;;;5003315;28;20486;-71
2022/10/17 07:18:42;;;;;;;19.15;6.57;;;;;;;;;;5009463;28;20152;-70
2022/10/17 07:21:08;;;;;;;21.42;6.25;;;;;;;;;;5009930;28;20479;-71
2022/10/17 07:23:38;;;;;;;23.45;6.90;;;;;;;;;;5012593;28;20555;-68
2022/10/17 07:26:07;;;;;;;20.55;6.60;;;;;;;;;;5010843;28;20050;-70
2022/10/17 07:28:35;;;;;;;25.58;6.85;;;;;;;;;;5010812;28;20061;-71
2022/10/17 07:31:13;;;;;;;23.23;6.93;;;;;;;;;;5013233;28;20547;-70
2022/10/17 07:33:40;;;;;;;19.25;6.32;;;;;;;;;;5005153;28;20051;-69
2022/10/17 07:36:06;;;;;;;17.48;6.18;;;;;;;;;;5009800;28;20096;-70
2022/10/17 07:38:33;;;;;;;18.33;6.03;;;;;;;;;;5011914;28;20056;-67
2022/10/17 07:41:00;;;;;;;21.15;6.10;;;;;;;;;;5014512;28;20042;-70
2022/10/17 07:43:27;;;;;;;25.25;6.43;;;;;;;;;;5012847;28;20046;-71
2022/10/17 07:45:53;;;;;;;18.98;5.88;;;;;;;;;;5006787;28;20041;-70
2022/10/17 07:48:21;;;;;;;22.58;6.20;;;;;;;;;;5008595;28;20086;-71
2022/10/17 07:50:47;;;;;;;30.38;6.88;;;;;;;;;;4993418;28;20042;-75
2022/10/17 07:53:14;;;;;;;22.88;6.60;;;;;;;;;;5009172;28;20053;-72
2022/10/17 07:55:40;;;;;;;23.05;6.95;;;;;;;;;;5009731;28;20111;-72
2022/10/17 07:58:08;;;;;;;22.23;6.40;;;;;;;;;;5004415;28;20050;-71
2022/10/17 08:00:35;;;;;;;18.95;6.80;;;;;;;;;;5007926;28;20045;-72
2022/10/17 08:03:01;;;;;;;21.23;6.55;;;;;;;;;;5006467;28;20050;-73
2022/10/17 08:05:28;;;;;;;15.77;6.05;;;;;;;;;;5008067;28;20071;-71
2022/10/17 08:07:54;;;;;;;18.05;5.63;;;;;;;;;;5008620;28;20414;-74
2022/10/17 08:10:20;;;;;;;26.17;6.32;;;;;;;;;;5009143;28;20049;-71
2022/10/17 08:12:46;;;;;;;16.38;6.03;;;;;;;;;;5008729;28;20569;-71
2022/10/17 08:15:12;;;;;;;27.58;6.72;;;;;;;;;;5008296;28;20037;-71
2022/10/17 08:17:38;;;;;;;22.77;6.93;;;;;;;;;;5009416;28;20054;-74
2022/10/17 08:20:05;;;;;;;30.75;7.30;;;;;;;;;;5008868;28;20420;-70
2022/10/17 08:22:32;;;;;;;24.20;7.22;;;;;;;;;;5009036;28;20119;-72
2022/10/17 08:24:58;;;;;;;19.15;6.20;;;;;;;;;;5008585;28;20065;-71
2022/10/17 08:27:26;;;;;;;20.73;6.20;;;;;;;;;;5008565;28;20103;-69
2022/10/17 08:29:52;;;;;;;27.75;7.88;;;;;;;;;;5009440;28;20112;-70
2022/10/17 08:32:21;;;;;;;32.90;6.45;;;;;;;;;;5010428;28;20042;-71
2022/10/17 08:34:47;;;;;;;21.15;5.90;;;;;;;;;;5011134;28;20050;-70
2022/10/17 08:37:13;;;;;;;20.85;6.72;;;;;;;;;;5008910;28;20050;-71
2022/10/17 08:39:41;;;;;;;27.15;6.20;;;;;;;;;;5010837;28;20038;-69
2022/10/17 08:42:25;;;;;;;22.88;6.10;;;;;;;;;;5010212;28;20089;-69
2022/10/17 08:45:19;;;;;;;27.00;6.43;;;;;;;;;;5009266;28;20056;-70
2022/10/17 08:47:51;;;;;;;20.58;6.57;;;;;;;;;;5008566;28;20096;-68
2022/10/17 08:50:34;;;;;;;24.55;6.70;;;;;;;;;;5009170;28;20046;-70
2022/10/17 08:53:08;;;;;;;14.98;7.22;;;;;;;;;;5001355;28;20107;-69
2022/10/17 08:55:41;;;;;;;26.77;7.57;;;;;;;;;;5008361;28;20277;-69
2022/10/17 08:58:23;;;;;;;24.50;7.57;;;;;;;;;;5008213;28;20034;-71
2022/10/17 09:01:04;;;;;;;29.90;8.88;;;;;;;;;;5007499;28;20542;-70
2022/10/17 09:04:07;;;;;;;28.70;9.35;;;;;;;;;;5007540;28;20141;-71
2022/10/17 09:06:39;;;;;;;30.05;9.05;;;;;;;;;;5007731;28;20128;-70
2022/10/17 09:09:17;;;;;;;22.60;9.00;;;;;;;;;;5007660;28;20054;-70
2022/10/17 09:12:19;;;;;;;33.80;8.95;;;;;;;;;;5007740;28;20131;-69
2022/10/17 09:15:11;;;;;;;21.20;8.13;;;;;;;;;;5009177;28;20460;-70
2022/10/17 09:17:51;;;;;;;17.70;6.75;;;;;;;;;;5008789;28;20054;-70
2022/10/17 09:20:26;;;;;;;25.30;6.95;;;;;;;;;;5008746;28;20081;-69
2022/10/17 09:22:55;;;;;;;18.98;7.43;;;;;;;;;;5008417;28;20145;-72
2022/10/17 09:25:21;;;;;;;21.27;7.18;;;;;;;;;;4999588;28;20566;-67
2022/10/17 09:27:51;;;;;;;26.23;7.30;;;;;;;;;;5009744;28;20050;-72
2022/10/17 09:30:42;;;;;;;28.42;8.25;;;;;;;;;;5010628;28;20396;-72
2022/10/17 09:33:21;;;;;;;22.35;6.47;;;;;;;;;;5001498;28;20042;-71
2022/10/17 09:35:49;;;;;;;24.80;6.85;;;;;;;;;;5009561;28;20479;-71
2022/10/17 09:38:20;;;;;;;24.17;6.72;;;;;;;;;;5014170;28;20042;-68
2022/10/17 09:40:59;;;;;;;26.20;6.65;;;;;;;;;;5013769;28;20057;-69
2022/10/17 09:43:26;;;;;;;23.50;6.93;;;;;;;;;;5015217;28;20095;-72
2022/10/17 09:45:55;;;;;;;19.80;5.93;;;;;;;;;;5013675;28;20472;-72
2022/10/17 09:48:28;;;;;;;21.60;5.85;;;;;;;;;;5013075;28;20050;-70
2022/10/17 09:50:56;;;;;;;26.03;6.60;;;;;;;;;;4998229;28;20100;-71
2022/10/17 09:53:28;;;;;;;22.35;6.30;;;;;;;;;;5014795;28;20287;-68
2022/10/17 09:55:57;;;;;;;27.65;6.75;;;;;;;;;;5015525;28;20054;-70
2022/10/17 09:58:38;;;;;;;25.00;6.18;;;;;;;;;;5016064;28;20048;-71
2022/10/17 10:01:18;;;;;;;20.67;5.57;;;;;;;;;;5015379;28;20053;-70
2022/10/17 10:03:43;;;;;;;16.45;6.00;;;;;;;;;;5004520;28;20443;-71
2022/10/17 10:06:14;;;;;;;20.90;5.45;;;;;;;;;;5005915;28;20081;-70
2022/10/17 10:08:54;;;;;;;20.83;6.00;;;;;;;;;;5005290;28;20066;-70
2022/10/17 10:11:46;;;;;;;17.77;5.43;;;;;;;;;;5007870;28;20054;-71
2022/10/17 10:14:35;;;;;;;17.52;5.80;;;;;;;;;;5011310;28;20470;-70
2022/10/17 10:17:32;;;;;;;21.95;5.97;;;;;;;;;;5003854;28;20054;-71
2022/10/17 10:19:58;;;;;;;25.23;6.25;;;;;;;;;;5007883;28;20439;-71
2022/10/17 10:22:24;;;;;;;14.35;4.78;;;;;;;;;;5002815;28;20054;-69
2022/10/17 10:25:25;;;;;;;15.98;5.07;;;;;;;;;;5006301;28;20049;-70
2022/10/17 10:27:51;;;;;;;20.35;5.55;;;;;;;;;;4981705;28;20043;-69
2022/10/17 10:30:21;;;;;;;24.20;5.20;;;;;;;;;;4953334;28;20703;-70
2022/10/17 10:32:48;;;;;;;15.43;5.15;;;;;;;;;;4969145;28;20050;-72
2022/10/17 10:35:17;;;;;;;18.30;5.25;;;;;;;;;;4969525;28;20121;-71
2022/10/17 10:37:48;;;;;;;19.17;6.13;;;;;;;;;;4968491;28;20053;-71
2022/10/17 10:40:22;;;;;;;20.38;6.10;;;;;;;;;;4982489;28;20074;-70
2022/10/17 10:42:50;;;;;;;;;;;;;;;;;;4984263;28;20051;-68
2022/10/17 10:45:17;;;;;;;15.43;5.25;;;;;;;;;;4970204;28;19973;-70
2022/10/17 10:47:58;;;;;;;16.52;5.20;;;;;;;;;;4967983;28;20877;-72
2022/10/17 10:50:23;;;;;;;16.20;5.03;;;;;;;;;;4971548;28;20496;-68
2022/10/17 10:53:20;;;;;;;14.73;5.07;;;;;;;;;;4984782;28;20074;-70
2022/10/17 10:55:51;;;;;;;13.32;5.00;;;;;;;;;;4968527;28;20046;-70
2022/10/17 10:58:40;;;;;;;12.52;3.33;;;;;;;;;;4968702;28;20576;-72
2022/10/17 11:01:15;;;;;;;11.38;3.40;;;;;;;;;;4975498;28;20050;-70
2022/10/17 11:03:53;;;;;;;16.25;4.15;;;;;;;;;;5012114;28;20052;-71
2022/10/17 11:06:27;;;;;;;15.60;3.85;;;;;;;;;;5007095;28;20049;-70
2022/10/17 11:09:13;;;;;;;12.75;3.92;;;;;;;;;;4989527;28;20046;-70
2022/10/17 11:11:43;;;;;;;16.48;3.75;;;;;;;;;;4989739;28;20074;-74
2022/10/17 11:14:37;;;;;;;12.45;3.40;;;;;;;;;;5001521;28;20042;-70
2022/10/17 11:17:23;;;;;;;12.52;3.85;;;;;;;;;;5008460;28;20425;-68
2022/10/17 11:20:01;;;;;;;11.32;3.63;;;;;;;;;;4998988;28;20046;-72
2022/10/17 11:22:32;;;;;;;14.77;2.95;;;;;;;;;;5014459;28;20086;-73
2022/10/17 11:25:10;;;;;;;13.13;3.42;;;;;;;;;;5009463;28;20152;-72
2022/10/17 11:27:36;;;;;;;11.93;3.47;;;;;;;;;;5010417;28;20046;-71
2022/10/17 11:30:03;;;;;;;12.45;3.20;;;;;;;;;;5010491;28;20045;-71
2022/10/17 11:32:36;;;;;;;12.95;3.85;;;;;;;;;;4995208;28;20278;-71
2022/10/17 11:35:13;;;;;;;15.90;3.70;;;;;;;;;;5011215;28;20056;-71
2022/10/17 11:37:45;;;;;;;11.50;3.03;;;;;;;;;;5010662;28;20096;-72
2022/10/17 11:40:23;;;;;;;14.90;3.92;;;;;;;;;;5010875;28;20113;-69
2022/10/17 11:42:58;;;;;;;11.80;3.20;;;;;;;;;;5011143;28;20042;-72
2022/10/17 11:45:27;;;;;;;14.00;3.85;;;;;;;;;;5010074;28;20259;-72
2022/10/17 11:48:11;;;;;;;12.35;2.85;;;;;;;;;;5010607;28;20045;-70
2022/10/17 11:50:39;;;;;;;;;;;;;;;;;;5012463;28;20136;-73
2022/10/17 11:53:09;;;;;;;13.57;2.50;;;;;;;;;;5013853;28;19925;-73
2022/10/17 11:55:39;;;;;;;13.93;3.13;;;;;;;;;;5010724;28;20050;-71
2022/10/17 11:58:35;;;;;;;9.43;2.63;;;;;;;;;;5008932;28;20041;-69
2022/10/17 12:01:10;;;;;;;12.65;2.38;;;;;;;;;;4994774;28;20180;-69
2022/10/17 12:04:03;;;;;;;9.55;3.00;;;;;;;;;;4997146;28;20057;-70
2022/10/17 12:07:08;;;;;;;15.05;2.80;;;;;;;;;;5009428;28;20080;-72
2022/10/17 12:09:46;;;;;;;13.10;3.15;;;;;;;;;;5010806;28;20038;-71
2022/10/17 12:12:27;;;;;;;11.80;2.80;;;;;;;;;;5012294;28;20053;-67
2022/10/17 12:15:13;;;;;;;10.52;2.75;;;;;;;;;;5010196;28;20074;-70
2022/10/17 12:17:43;;;;;;;12.93;3.15;;;;;;;;;;5001630;28;20061;-70
2022/10/17 12:20:24;;;;;;;8.00;2.30;;;;;;;;;;5009542;28;20621;-69
2022/10/17 12:22:55;;;;;;;9.32;2.40;;;;;;;;;;5009717;28;20149;-70
2022/10/17 12:25:23;;;;;;;6.90;2.40;;;;;;;;;;4990755;28;20085;-71
2022/10/17 12:27:50;;;;;;;12.55;2.70;;;;;;;;;;5009591;28;20049;-71
2022/10/17 12:30:18;;;;;;;7.57;2.45;;;;;;;;;;5008178;28;20045;-72
2022/10/17 12:33:20;;;;;;;13.10;3.05;;;;;;;;;;5006851;28;20044;-70
2022/10/17 12:35:47;;;;;;;10.30;2.70;;;;;;;;;;5008619;28;20050;-72
2022/10/17 12:38:16;;;;;;;10.75;2.63;;;;;;;;;;5008931;28;20084;-71
2022/10/17 12:40:42;;;;;;;13.27;2.70;;;;;;;;;;5009162;28;20052;-70
2022/10/17 12:43:14;;;;;;;10.68;2.92;;;;;;;;;;5009292;28;20128;-70
2022/10/17 12:45:59;;;;;;;8.50;2.60;;;;;;;;;;5009732;28;20567;-70
2022/10/17 12:48:40;;;;;;;16.33;3.63;;;;;;;;;;5011510;28;20056;-69
2022/10/17 12:51:08;;;;;;;17.35;3.33;;;;;;;;;;5011903;28;20506;-68
2022/10/17 12:53:46;;;;;;;17.30;3.25;;;;;;;;;;5008126;28;20501;-71
2022/10/17 12:56:21;;;;;;;15.68;3.05;;;;;;;;;;5011014;28;20607;-71
2022/10/17 12:58:49;;;;;;;17.70;3.53;;;;;;;;;;5011202;28;20503;-68
2022/10/17 13:01:26;;;;;;;10.43;3.08;;;;;;;;;;5008311;28;20279;-69
2022/10/17 13:03:52;;;;;;;11.98;2.72;;;;;;;;;;5009083;28;20042;-70
2022/10/17 13:06:21;;;;;;;13.25;2.70;;;;;;;;;;5011753;28;20495;-70
2022/10/17 13:08:55;;;;;;;13.77;3.08;;;;;;;;;;5008111;28;20089;-71
2022/10/17 13:11:27;;;;;;;10.73;2.60;;;;;;;;;;5010586;28;20050;-72
2022/10/17 13:13:56;;;;;;;16.55;3.22;;;;;;;;;;5004633;28;20102;-73
2022/10/17 13:16:35;;;;;;;10.30;2.65;;;;;;;;;;5007307;28;20125;-70
2022/10/17 13:19:11;;;;;;;15.88;3.00;;;;;;;;;;5010278;28;20045;-69
2022/10/17 13:21:37;;;;;;;15.13;3.08;;;;;;;;;;5012189;28;20053;-70
2022/10/17 13:24:26;;;;;;;13.23;2.83;;;;;;;;;;5009616;28;20049;-71
2022/10/17 13:26:52;;;;;;;11.07;2.25;;;;;;;;;;5009085;28;20045;-72
2022/10/17 13:29:20;;;;;;;13.48;2.67;;;;;;;;;;5010846;28;20058;-74
2022/10/17 13:31:53;;;;;;;10.25;2.60;;;;;;;;;;5012531;28;20084;-70
2022/10/17 13:34:24;;;;;;;16.40;3.03;;;;;;;;;;5009589;28;20593;-67
2022/10/17 13:37:03;;;;;;;13.65;2.40;;;;;;;;;;5010819;28;20046;-69
2022/10/17 13:39:37;;;;;;;10.90;2.85;;;;;;;;;;5004513;28;20054;-72
2022/10/17 13:42:03;;;;;;;8.52;2.85;;;;;;;;;;5008831;28;20042;-72
2022/10/17 13:44:32;;;;;;;13.02;2.28;;;;;;;;;;5008718;28;20476;-71
2022/10/17 13:46:58;;;;;;;14.43;2.20;;;;;;;;;;5009611;28;20117;-71
2022/10/17 13:49:30;;;;;;;11.32;2.50;;;;;;;;;;5011581;28;20128;-70
2022/10/17 13:51:57;;;;;;;15.57;2.70;;;;;;;;;;5007649;28;20054;-71
2022/10/17 13:54:35;;;;;;;11.88;2.38;;;;;;;;;;5007762;28;20096;-71
2022/10/17 13:57:03;;;;;;;13.00;2.97;;;;;;;;;;5008363;28;20835;-73
2022/10/17 13:59:39;;;;;;;12.63;3.10;;;;;;;;;;5003912;28;20127;-73
2022/10/17 14:02:15;;;;;;;12.05;2.53;;;;;;;;;;5007974;28;20173;-75
2022/10/17 14:04:41;;;;;;;11.27;2.92;;;;;;;;;;5006626;28;20060;-73
2022/10/17 14:07:22;;;;;;;14.38;2.63;;;;;;;;;;5008166;28;20505;-70
2022/10/17 14:09:48;;;;;;;15.60;2.80;;;;;;;;;;5008754;28;20064;-72
2022/10/17 14:12:15;;;;;;;10.05;2.88;;;;;;;;;;5008529;28;20034;-70
2022/10/17 14:14:47;;;;;;;24.45;2.88;;;;;;;;;;5000137;28;20104;-71
2022/10/17 14:17:23;;;;;;;15.82;3.13;;;;;;;;;;4999952;28;20078;-70
2022/10/17 14:19:55;;;;;;;16.05;3.00;;;;;;;;;;5006572;28;20126;-70
2022/10/17 14:22:21;;;;;;;20.73;2.80;;;;;;;;;;5013855;28;20056;-70
2022/10/17 14:24:50;;;;;;;12.43;2.38;;;;;;;;;;5013405;28;20089;-70
2022/10/17 14:27:36;;;;;;;13.50;2.70;;;;;;;;;;5012942;28;20086;-73
2022/10/17 14:30:27;;;;;;;12.20;2.55;;;;;;;;;;5012203;28;20107;-71
2022/10/17 14:33:02;;;;;;;17.05;2.65;;;;;;;;;;5012231;28;20169;-70
2022/10/17 14:35:29;;;;;;;11.02;2.70;;;;;;;;;;5013446;28;20049;-71
2022/10/17 14:38:05;;;;;;;18.02;3.10;;;;;;;;;;5014006;28;20114;-71
2022/10/17 14:40:33;;;;;;;18.45;3.20;;;;;;;;;;5018241;28;20061;-73
2022/10/17 14:43:04;;;;;;;14.05;2.47;;;;;;;;;;4997141;28;20600;-71
2022/10/17 14:45:36;;;;;;;13.75;3.03;;;;;;;;;;5010579;28;20053;-71
2022/10/17 14:48:13;;;;;;;12.80;2.75;;;;;;;;;;5011218;28;20038;-73
2022/10/17 14:50:40;;;;;;;18.90;3.78;;;;;;;;;;5009254;28;20046;-75
2022/10/17 14:53:09;;;;;;;18.63;3.20;;;;;;;;;;4999327;28;20038;-70
2022/10/17 14:55:37;;;;;;;23.88;3.33;;;;;;;;;;5005394;28;20065;-70